Time;durP1;ratioP1;P1;durP2;ratioP2;P2;SDS_P1;SDS_P2;PMS_P1;PMS_P2;Temp;Humidity;BMP_temperature;BMP_pressure;BME280_temperature;BME280_humidity;BME280_pressure;Samples;Min_cycle;Max_cycle;Signal;HPM_P1;HPM_P2
2021/01/07 00:01:32;;;;;;;7.58;6.20;;;;;;;8.32;58.86;100871.60;1757331;81;21177;-78
2021/01/07 00:04:00;;;;;;;10.40;7.12;;;;;;;8.28;58.95;100873.34;1719861;81;21371;-78
2021/01/07 00:06:27;;;;;;;11.50;7.53;;;;;;;8.26;59.06;100876.61;1741955;80;21190;-79
2021/01/07 00:08:56;;;;;;;12.75;7.95;;;;;;;8.27;59.13;100869.83;1737670;82;21669;-79
2021/01/07 00:11:25;;;;;;;15.23;10.58;;;;;;;8.29;59.17;100864.34;1798112;79;21189;-78
2021/01/07 00:13:53;;;;;;;13.58;9.98;;;;;;;8.26;59.22;100861.94;1795811;79;21110;-78
2021/01/07 00:16:21;;;;;;;14.35;9.70;;;;;;;8.28;59.32;100860.83;1793088;79;21162;-78
2021/01/07 00:18:48;;;;;;;15.95;10.60;;;;;;;8.30;59.33;100855.35;1746922;81;21250;-79
2021/01/07 00:21:17;;;;;;;17.52;12.07;;;;;;;8.27;59.36;100857.81;1717879;83;21179;-79
2021/01/07 00:23:44;;;;;;;19.60;12.33;;;;;;;8.27;59.44;100854.30;1738928;81;21197;-79
2021/01/07 00:26:14;;;;;;;21.82;14.33;;;;;;;8.32;59.45;100856.08;1738854;82;21182;-79
2021/01/07 00:28:42;;;;;;;22.42;14.58;;;;;;;8.30;59.50;100852.19;1793469;79;21209;-79
2021/01/07 00:31:10;;;;;;;22.02;13.65;;;;;;;8.34;59.49;100860.78;1735053;81;21408;-79
2021/01/07 00:33:37;;;;;;;23.47;13.22;;;;;;;8.35;59.45;100860.64;1794481;79;21011;-79
2021/01/07 00:36:06;;;;;;;20.43;13.10;;;;;;;8.31;59.50;100867.25;1726248;83;21193;-78
2021/01/07 00:38:34;;;;;;;20.52;13.13;;;;;;;8.29;59.56;100868.34;1735671;82;21210;-78
2021/01/07 00:41:02;;;;;;;20.15;12.73;;;;;;;8.26;59.63;100862.77;1792612;79;21370;-78
2021/01/07 00:43:33;;;;;;;14.85;10.50;;;;;;;8.27;59.68;100863.65;1790658;79;21166;-78
2021/01/07 00:46:01;;;;;;;15.25;10.00;;;;;;;8.28;59.70;100861.33;1732859;82;21174;-78
2021/01/07 00:48:28;;;;;;;16.30;10.48;;;;;;;8.29;59.67;100859.01;1717459;82;21206;-78
2021/01/07 00:50:56;;;;;;;18.92;11.78;;;;;;;8.26;59.70;100859.27;1720492;82;21241;-77
2021/01/07 00:53:24;;;;;;;15.15;10.45;;;;;;;8.61;59.03;100866.89;1740712;82;21638;-79
2021/01/07 00:55:51;;;;;;;15.23;10.95;;;;;;;8.88;58.41;100871.11;1736620;81;21586;-78
2021/01/07 00:58:20;;;;;;;14.65;10.43;;;;;;;8.95;58.12;100873.23;1792049;79;21182;-77
2021/01/07 01:00:47;;;;;;;13.40;9.73;;;;;;;8.96;57.99;100868.27;1732707;81;21189;-78
2021/01/07 01:03:15;;;;;;;13.25;9.33;;;;;;;9.00;57.88;100868.34;1722017;82;21181;-78
2021/01/07 01:05:43;;;;;;;10.60;7.58;;;;;;;9.06;57.78;100867.28;1723456;82;22473;-78
2021/01/07 01:08:11;;;;;;;11.00;8.23;;;;;;;9.09;57.59;100865.69;1734819;82;21146;-78
2021/01/07 01:10:39;;;;;;;12.13;8.70;;;;;;;8.58;58.54;100857.80;1795400;79;21174;-78
2021/01/07 01:13:06;;;;;;;10.43;7.17;;;;;;;8.38;59.07;100847.06;1732215;82;21153;-78
2021/01/07 01:15:37;;;;;;;9.83;7.28;;;;;;;8.42;59.21;100843.64;1794008;79;21688;-78
2021/01/07 01:18:05;;;;;;;9.35;6.83;;;;;;;8.33;59.38;100843.92;1797440;79;21637;-78
2021/01/07 01:20:33;;;;;;;10.10;8.03;;;;;;;8.28;59.52;100842.16;1792576;79;21170;-78
2021/01/07 01:23:01;;;;;;;8.88;6.70;;;;;;;8.28;59.65;100838.15;1749644;80;21177;-79
2021/01/07 01:25:28;;;;;;;8.28;6.90;;;;;;;8.33;59.67;100844.42;1717599;82;21581;-79
2021/01/07 01:27:56;;;;;;;8.95;7.42;;;;;;;8.33;59.66;100831.08;1726021;83;21158;-79
2021/01/07 01:30:24;;;;;;;7.28;6.33;;;;;;;8.81;58.61;100826.38;1728389;81;21780;-78
2021/01/07 01:32:52;;;;;;;8.00;6.42;;;;;;;8.92;58.25;100830.78;1790908;79;21134;-78
2021/01/07 01:35:21;;;;;;;10.63;7.53;;;;;;;8.66;58.70;100816.59;1725500;82;21181;-78
2021/01/07 01:37:49;;;;;;;9.40;7.37;;;;;;;8.50;59.12;100811.78;1737113;82;21778;-78
2021/01/07 01:40:17;;;;;;;10.60;8.20;;;;;;;8.44;59.16;100796.29;1787961;78;21535;-78
2021/01/07 01:42:47;;;;;;;8.68;7.08;;;;;;;8.41;59.28;100788.58;1727457;82;21382;-80
2021/01/07 01:45:15;;;;;;;10.18;6.92;;;;;;;8.46;59.29;100784.16;1720085;83;21447;-78
2021/01/07 01:47:43;;;;;;;9.73;7.33;;;;;;;8.46;59.23;100787.67;1753972;81;21579;-78
2021/01/07 01:50:14;;;;;;;8.48;6.72;;;;;;;8.45;59.28;100790.45;1734923;81;21185;-77
2021/01/07 01:52:41;;;;;;;9.78;7.22;;;;;;;8.48;59.30;100788.86;1715383;83;22173;-78
2021/01/07 01:55:12;;;;;;;11.15;7.33;;;;;;;8.49;59.26;100779.86;1717251;82;21627;-77
2021/01/07 01:57:40;;;;;;;8.28;6.33;;;;;;;8.48;59.19;100777.69;1745276;82;21156;-77
2021/01/07 02:00:09;;;;;;;9.83;6.62;;;;;;;8.41;59.17;100767.22;1720154;82;21188;-80
2021/01/07 02:02:38;;;;;;;11.30;7.55;;;;;;;8.35;59.29;100763.22;1745336;82;21201;-78
2021/01/07 02:05:07;;;;;;;10.00;7.53;;;;;;;8.36;59.33;100762.75;1804465;79;21552;-79
2021/01/07 02:07:35;;;;;;;12.00;7.55;;;;;;;8.41;59.33;100765.05;1804743;79;21358;-79
2021/01/07 02:10:04;;;;;;;11.48;8.33;;;;;;;8.47;59.29;100763.99;1757034;79;21116;-78
2021/01/07 02:12:32;;;;;;;11.25;8.65;;;;;;;8.53;59.21;100758.09;1788127;78;21184;-78
2021/01/07 02:14:59;;;;;;;12.95;8.35;;;;;;;8.62;59.08;100753.76;1786647;79;21245;-78
2021/01/07 02:17:27;;;;;;;13.13;8.98;;;;;;;8.68;58.86;100753.72;1786476;78;21225;-77
2021/01/07 02:19:58;;;;;;;12.35;8.60;;;;;;;8.70;58.77;100762.42;1776702;79;22239;-80
2021/01/07 02:22:27;;;;;;;13.40;9.50;;;;;;;8.70;58.63;100761.92;1772758;80;21144;-78
2021/01/07 02:24:55;;;;;;;13.75;9.25;;;;;;;8.68;58.57;100745.70;1772786;80;21139;-78
2021/01/07 02:27:23;;;;;;;13.65;9.38;;;;;;;8.63;58.67;100748.30;1762224;79;21154;-78
2021/01/07 02:29:50;;;;;;;13.00;9.50;;;;;;;8.62;58.66;100750.59;1799532;78;21097;-79
2021/01/07 02:32:18;;;;;;;13.20;8.78;;;;;;;8.61;58.67;100750.25;1804409;79;21347;-78
2021/01/07 02:34:46;;;;;;;11.80;8.08;;;;;;;8.60;58.64;100745.89;1804027;79;21380;-77
2021/01/07 02:37:14;;;;;;;12.80;9.00;;;;;;;8.56;58.68;100756.49;1804040;79;21142;-78
2021/01/07 02:39:43;;;;;;;10.15;7.20;;;;;;;8.53;58.72;100746.08;1804041;79;21138;-78
2021/01/07 02:42:11;;;;;;;11.83;8.28;;;;;;;8.49;58.78;100737.98;1804240;79;21101;-79
2021/01/07 02:44:40;;;;;;;13.38;8.58;;;;;;;8.45;58.88;100737.94;1804677;79;21785;-79
2021/01/07 02:47:08;;;;;;;12.15;8.20;;;;;;;8.46;58.92;100734.28;1804603;79;21177;-78
2021/01/07 02:49:35;;;;;;;12.30;8.08;;;;;;;8.46;58.92;100732.95;1804742;79;21145;-79
2021/01/07 02:52:03;;;;;;;10.03;7.10;;;;;;;8.43;58.94;100735.05;1804676;79;21482;-78
2021/01/07 02:54:33;;;;;;;12.03;7.28;;;;;;;8.44;58.96;100738.89;1804642;79;21169;-80
2021/01/07 02:57:02;;;;;;;8.10;6.05;;;;;;;8.39;58.98;100735.80;1804506;79;21342;-79
2021/01/07 02:59:30;;;;;;;12.40;7.87;;;;;;;8.34;59.08;100736.67;1804767;79;21493;-77
2021/01/07 03:01:58;;;;;;;13.18;7.90;;;;;;;8.26;59.22;100725.83;1804753;79;21485;-78
2021/01/07 03:04:25;;;;;;;11.15;7.70;;;;;;;8.24;59.32;100718.47;1804513;79;21207;-80
2021/01/07 03:06:53;;;;;;;10.95;7.65;;;;;;;8.26;59.30;100721.83;1804609;79;21094;-80
2021/01/07 03:09:20;;;;;;;11.93;7.72;;;;;;;8.27;59.36;100719.53;1804720;79;22744;-80
2021/01/07 03:11:48;;;;;;;10.63;8.13;;;;;;;8.36;59.29;100713.38;1804559;79;21122;-79
2021/01/07 03:14:16;;;;;;;11.97;8.73;;;;;;;8.46;59.17;100709.42;1804454;79;21149;-78
2021/01/07 03:16:43;;;;;;;9.78;7.40;;;;;;;8.51;59.03;100692.48;1804265;79;21109;-79
2021/01/07 03:19:11;;;;;;;11.05;7.28;;;;;;;8.58;58.84;100699.81;1804309;79;21149;-78
2021/01/07 03:21:41;;;;;;;12.95;8.30;;;;;;;8.61;58.75;100695.50;1804483;79;22640;-79
2021/01/07 03:24:09;;;;;;;12.93;8.43;;;;;;;8.67;58.58;100690.09;1803853;78;21209;-76
2021/01/07 03:26:38;;;;;;;10.75;7.20;;;;;;;8.72;58.32;100674.98;1804001;79;21141;-81
2021/01/07 03:29:05;;;;;;;10.68;7.70;;;;;;;8.78;58.07;100673.10;1803742;79;21181;-78
2021/01/07 03:31:33;;;;;;;10.38;7.35;;;;;;;8.79;57.79;100670.77;1804156;78;21162;-79
2021/01/07 03:34:01;;;;;;;10.03;6.92;;;;;;;8.80;57.61;100661.77;1804067;79;21342;-79
2021/01/07 03:36:29;;;;;;;9.15;6.75;;;;;;;8.78;57.51;100651.73;1803796;79;22184;-79
2021/01/07 03:38:57;;;;;;;10.15;6.90;;;;;;;8.79;57.44;100648.08;1804232;79;21201;-79
2021/01/07 03:41:24;;;;;;;10.80;6.92;;;;;;;8.77;57.31;100646.89;1804072;79;21656;-78
2021/01/07 03:43:52;;;;;;;7.50;6.30;;;;;;;8.72;57.27;100654.48;1804459;79;21098;-77
2021/01/07 03:46:20;;;;;;;10.10;7.08;;;;;;;8.67;57.20;100648.70;1804660;79;21380;-78
2021/01/07 03:48:47;;;;;;;8.95;6.58;;;;;;;8.49;57.52;100644.55;1804797;79;21176;-77
2021/01/07 03:51:16;;;;;;;10.08;5.97;;;;;;;8.47;57.60;100647.87;1804613;79;21394;-79
2021/01/07 03:53:43;;;;;;;13.25;8.00;;;;;;;8.41;57.56;100642.27;1804795;79;21170;-79
2021/01/07 03:56:11;;;;;;;11.85;7.87;;;;;;;8.30;57.76;100644.52;1804541;79;21676;-79
2021/01/07 03:58:39;;;;;;;10.75;6.62;;;;;;;8.27;57.86;100652.33;1804864;79;21365;-78
2021/01/07 04:01:06;;;;;;;12.43;7.90;;;;;;;8.25;57.86;100656.94;1804298;79;21157;-79
2021/01/07 04:03:34;;;;;;;11.33;7.35;;;;;;;8.19;57.92;100657.50;1804763;79;21158;-80
2021/01/07 04:06:03;;;;;;;13.50;8.28;;;;;;;8.13;58.06;100654.06;1804529;79;21478;-78
2021/01/07 04:08:30;;;;;;;13.70;8.08;;;;;;;8.03;58.24;100654.52;1797636;79;21166;-79
2021/01/07 04:10:58;;;;;;;11.33;6.20;;;;;;;7.94;58.57;100644.17;1804000;79;22041;-81
2021/01/07 04:13:26;;;;;;;13.80;7.40;;;;;;;7.93;58.75;100640.31;1791795;78;21660;-78
2021/01/07 04:15:54;;;;;;;12.47;7.85;;;;;;;7.94;58.84;100640.17;1802394;79;21712;-79
2021/01/07 04:18:22;;;;;;;11.25;6.95;;;;;;;7.97;58.89;100637.23;1804081;79;21114;-79
2021/01/07 04:20:51;;;;;;;12.05;7.42;;;;;;;8.00;58.89;100642.31;1785309;78;21158;-80
2021/01/07 04:23:19;;;;;;;12.43;7.60;;;;;;;8.02;58.84;100646.16;1781994;78;21774;-78
2021/01/07 04:25:46;;;;;;;12.95;7.00;;;;;;;7.98;58.86;100641.58;1798652;79;21525;-77
2021/01/07 04:28:14;;;;;;;10.28;6.05;;;;;;;7.93;58.97;100642.48;1750028;80;21171;-78
2021/01/07 04:30:42;;;;;;;10.70;6.90;;;;;;;7.91;59.07;100640.46;1726191;81;21177;-77
2021/01/07 04:33:10;;;;;;;13.50;7.67;;;;;;;7.97;58.99;100636.40;1737026;80;21576;-77
2021/01/07 04:35:37;;;;;;;12.10;7.75;;;;;;;7.89;59.30;100634.41;1792606;79;21666;-77
2021/01/07 04:38:07;;;;;;;13.90;7.83;;;;;;;7.91;59.34;100627.63;1749918;81;21472;-76
2021/01/07 04:40:35;;;;;;;12.68;7.45;;;;;;;7.90;59.35;100620.08;1708439;82;21157;-79
2021/01/07 04:43:03;;;;;;;11.73;7.30;;;;;;;7.91;59.38;100620.45;1738806;82;21202;-78
2021/01/07 04:45:31;;;;;;;9.18;6.42;;;;;;;7.93;59.44;100610.48;1793675;79;21145;-78
2021/01/07 04:47:58;;;;;;;14.35;7.53;;;;;;;7.97;59.48;100611.05;1723126;82;21348;-77
2021/01/07 04:50:26;;;;;;;11.70;7.22;;;;;;;8.00;59.51;100603.63;1753038;81;21176;-80
2021/01/07 04:52:54;;;;;;;12.95;7.85;;;;;;;8.03;59.49;100599.83;1730014;81;21148;-78
2021/01/07 04:55:21;;;;;;;11.88;7.05;;;;;;;8.04;59.47;100598.38;1753110;81;21147;-77
2021/01/07 04:57:49;;;;;;;10.25;6.25;;;;;;;8.03;59.50;100588.66;1753287;81;21180;-78
2021/01/07 05:00:19;;;;;;;9.70;6.17;;;;;;;7.98;59.47;100597.57;1753232;81;21366;-77
2021/01/07 05:02:48;;;;;;;9.40;6.20;;;;;;;7.91;59.59;100595.62;1754099;81;21145;-77
2021/01/07 05:05:16;;;;;;;12.47;7.45;;;;;;;7.83;59.72;100587.80;1753680;81;21184;-77
2021/01/07 05:07:43;;;;;;;13.83;8.08;;;;;;;7.85;59.79;100588.48;1753969;81;21165;-78
2021/01/07 05:10:11;;;;;;;15.30;9.23;;;;;;;7.86;59.78;100584.87;1753824;81;21117;-78
2021/01/07 05:12:39;;;;;;;14.98;8.30;;;;;;;7.88;59.78;100578.89;1754169;81;21410;-77
2021/01/07 05:15:08;;;;;;;17.87;10.63;;;;;;;7.93;59.73;100573.14;1753792;81;21191;-77
2021/01/07 05:17:36;;;;;;;17.15;10.90;;;;;;;7.93;59.59;100583.81;1754024;81;21223;-77
2021/01/07 05:20:12;;;;;;;14.13;8.58;;;;;;;7.87;59.53;100567.04;1753780;81;21179;-77
2021/01/07 05:22:42;;;;;;;12.13;7.47;;;;;;;7.86;59.56;100568.03;1754281;81;21208;-77
2021/01/07 05:25:13;;;;;;;14.18;9.10;;;;;;;7.78;59.61;100567.87;1753960;81;22271;-79
2021/01/07 05:27:42;;;;;;;12.85;7.62;;;;;;;7.67;59.80;100559.47;1754272;81;21033;-79
2021/01/07 05:30:12;;;;;;;12.53;7.50;;;;;;;7.62;59.97;100551.89;1753233;81;21200;-79
2021/01/07 05:32:44;;;;;;;9.90;6.65;;;;;;;7.59;60.01;100554.84;1754042;81;21155;-78
2021/01/07 05:35:21;;;;;;;12.82;8.18;;;;;;;7.58;60.04;100553.14;1753798;81;21465;-79
2021/01/07 05:37:49;;;;;;;18.27;9.70;;;;;;;7.53;60.13;100555.86;1754349;81;21205;-80
2021/01/07 05:40:16;;;;;;;18.42;9.03;;;;;;;7.46;60.30;100545.41;1753836;81;21256;-80
2021/01/07 05:42:45;;;;;;;17.42;9.40;;;;;;;7.41;60.41;100545.81;1753976;81;21073;-79
2021/01/07 05:45:15;;;;;;;17.17;9.25;;;;;;;7.35;60.52;100541.85;1753887;81;21168;-79
2021/01/07 05:47:52;;;;;;;18.57;10.58;;;;;;;7.29;60.71;100540.23;1754170;81;21548;-81
2021/01/07 05:50:20;;;;;;;17.35;10.03;;;;;;;7.30;60.86;100538.75;1754144;81;21388;-79
2021/01/07 05:52:49;;;;;;;36.40;10.70;;;;;;;7.34;60.90;100538.84;1754106;81;21144;-80
2021/01/07 05:55:18;;;;;;;30.92;10.93;;;;;;;7.33;60.92;100535.83;1753633;81;21161;-80
2021/01/07 05:57:46;;;;;;;19.50;10.25;;;;;;;7.35;60.95;100531.19;1753283;81;21196;-79
2021/01/07 06:00:16;;;;;;;18.75;10.15;;;;;;;7.35;60.94;100529.02;1754095;81;21112;-79
2021/01/07 06:02:45;;;;;;;16.15;8.13;;;;;;;7.40;60.91;100530.78;1753565;81;21441;-79
2021/01/07 06:05:14;;;;;;;19.55;10.53;;;;;;;7.43;60.88;100533.19;1753773;81;21180;-79
2021/01/07 06:07:43;;;;;;;19.85;10.45;;;;;;;7.40;60.90;100529.45;1741309;81;21169;-78
2021/01/07 06:10:12;;;;;;;20.17;10.78;;;;;;;7.36;60.95;100528.06;1745091;82;21167;-80
2021/01/07 06:12:40;;;;;;;22.87;11.35;;;;;;;7.32;61.08;100527.98;1804256;79;21465;-79
2021/01/07 06:15:13;;;;;;;18.35;9.45;;;;;;;7.31;61.11;100528.94;1803917;79;21358;-79
2021/01/07 06:17:41;;;;;;;23.60;12.20;;;;;;;7.29;61.22;100532.23;1803819;79;21250;-79
2021/01/07 06:20:21;;;;;;;24.00;13.08;;;;;;;7.26;61.32;100528.50;1781425;79;21665;-81
2021/01/07 06:22:51;;;;;;;24.32;12.30;;;;;;;7.29;61.41;100529.57;1804700;78;21099;-78
2021/01/07 06:25:21;;;;;;;25.17;11.60;;;;;;;7.34;61.46;100521.52;1804391;78;21564;-77
2021/01/07 06:27:50;;;;;;;21.23;10.72;;;;;;;7.42;61.47;100522.18;1804033;79;21346;-78
2021/01/07 06:30:23;;;;;;;23.67;12.70;;;;;;;7.50;61.39;100525.51;1803661;79;21113;-79
2021/01/07 06:33:06;;;;;;;24.10;12.85;;;;;;;7.59;61.34;100526.02;1803913;79;21117;-78
2021/01/07 06:35:39;;;;;;;27.20;14.28;;;;;;;7.69;61.27;100515.37;1804620;79;21064;-78
2021/01/07 06:38:07;;;;;;;26.35;13.43;;;;;;;7.78;61.19;100509.20;1804026;79;21628;-77
2021/01/07 06:40:43;;;;;;;25.37;12.85;;;;;;;7.87;61.10;100521.70;1804316;79;21400;-77
2021/01/07 06:43:19;;;;;;;24.67;12.23;;;;;;;7.93;61.01;100520.30;1804784;78;21158;-80
2021/01/07 06:45:51;;;;;;;25.05;12.50;;;;;;;7.99;60.87;100507.72;1804752;79;21628;-79
2021/01/07 06:48:34;;;;;;;27.25;13.62;;;;;;;8.07;60.81;100511.37;1804744;79;21113;-78
2021/01/07 06:51:03;;;;;;;24.50;13.55;;;;;;;8.14;60.66;100510.34;1805007;79;21145;-78
2021/01/07 06:53:36;;;;;;;27.25;14.70;;;;;;;8.18;60.45;100505.07;1804552;79;21350;-77
2021/01/07 06:56:19;;;;;;;25.10;12.80;;;;;;;8.22;60.31;100501.14;1804324;79;21291;-78
2021/01/07 06:58:48;;;;;;;28.62;14.65;;;;;;;8.27;60.19;100506.05;1804388;79;21110;-79
2021/01/07 07:01:17;;;;;;;28.10;14.73;;;;;;;8.28;59.98;100506.39;1782059;79;21146;-79
2021/01/07 07:03:50;;;;;;;25.92;13.38;;;;;;;8.28;59.85;100503.23;1804589;79;21473;-77
2021/01/07 07:06:22;;;;;;;25.00;12.93;;;;;;;8.30;59.75;100499.91;1804233;79;21624;-79
2021/01/07 07:08:50;;;;;;;23.40;13.68;;;;;;;8.32;59.66;100494.45;1804265;79;21629;-78
2021/01/07 07:11:31;;;;;;;26.85;15.00;;;;;;;8.36;59.61;100495.86;1804171;79;21161;-78
2021/01/07 07:14:00;;;;;;;28.05;15.65;;;;;;;8.37;59.50;100490.39;1803595;79;21644;-80
2021/01/07 07:16:33;;;;;;;31.93;18.80;;;;;;;8.41;59.39;100488.78;1804211;79;21182;-79
2021/01/07 07:19:00;;;;;;;32.75;17.05;;;;;;;8.41;59.29;100486.95;1803895;78;21347;-79
2021/01/07 07:21:29;;;;;;;30.92;17.25;;;;;;;8.42;59.27;100487.30;1804374;79;21121;-79
2021/01/07 07:24:07;;;;;;;27.30;17.32;;;;;;;8.43;59.23;100485.47;1804253;79;21149;-79
2021/01/07 07:26:40;;;;;;;22.93;13.00;;;;;;;8.43;59.21;100485.47;1797441;78;21154;-80
2021/01/07 07:29:16;;;;;;;25.57;14.65;;;;;;;8.46;59.26;100484.69;1808002;77;22789;-77
2021/01/07 07:31:47;;;;;;;22.02;13.55;;;;;;;8.41;59.22;100480.28;1754074;80;21088;-78
2021/01/07 07:34:16;;;;;;;24.00;12.55;;;;;;;8.41;59.19;100475.44;1758916;81;21835;-78
2021/01/07 07:36:44;;;;;;;19.12;11.15;;;;;;;8.39;59.19;100472.89;1786269;80;21144;-78
2021/01/07 07:39:12;;;;;;;22.67;12.55;;;;;;;8.36;59.28;100478.05;1786558;80;21109;-78
2021/01/07 07:41:44;;;;;;;26.80;13.13;;;;;;;8.38;59.33;100469.88;1784536;78;21421;-78
2021/01/07 07:44:14;;;;;;;25.40;14.93;;;;;;;8.38;59.41;100469.88;1785591;78;21168;-79
2021/01/07 07:46:43;;;;;;;26.05;15.13;;;;;;;8.36;59.68;100470.03;1785871;80;21415;-79
2021/01/07 07:49:11;;;;;;;25.57;13.50;;;;;;;8.35;60.16;100468.80;1785914;80;21195;-79
2021/01/07 07:51:40;;;;;;;28.60;15.53;;;;;;;8.30;60.65;100465.72;1786009;80;21630;-78
2021/01/07 07:54:10;;;;;;;24.82;13.58;;;;;;;8.25;61.14;100461.30;1785979;80;21160;-79
2021/01/07 07:56:38;;;;;;;33.83;17.57;;;;;;;8.26;61.46;100469.65;1785409;80;21191;-78
2021/01/07 07:59:10;;;;;;;31.25;16.85;;;;;;;8.27;61.70;100466.02;1785522;80;21224;-78
2021/01/07 08:01:46;;;;;;;20.60;10.80;;;;;;;8.30;61.95;100460.37;1785729;80;21132;-78
2021/01/07 08:04:17;;;;;;;30.50;14.98;;;;;;;8.32;62.13;100458.42;1785872;80;21160;-78
2021/01/07 08:06:46;;;;;;;29.35;15.03;;;;;;;8.37;62.21;100454.36;1786342;80;21100;-78
2021/01/07 08:09:17;;;;;;;24.45;13.20;;;;;;;8.44;62.19;100445.27;1786220;80;21176;-79
2021/01/07 08:11:53;;;;;;;29.98;16.70;;;;;;;8.43;62.36;100439.59;1786182;80;21364;-79
2021/01/07 08:14:24;;;;;;;28.83;16.25;;;;;;;8.40;62.57;100439.88;1786458;80;21187;-78
2021/01/07 08:16:56;;;;;;;29.10;15.58;;;;;;;8.44;62.67;100439.94;1786277;80;21180;-78
2021/01/07 08:19:35;;;;;;;33.60;18.17;;;;;;;8.49;62.76;100426.98;1785048;80;21168;-79
2021/01/07 08:22:03;;;;;;;21.12;12.95;;;;;;;8.54;62.79;100426.55;1785769;80;21160;-79
2021/01/07 08:24:31;;;;;;;26.57;14.78;;;;;;;8.59;62.77;100422.98;1784373;78;21365;-79
2021/01/07 08:27:19;;;;;;;30.35;15.83;;;;;;;8.61;62.80;100429.84;1780898;80;21171;-78
2021/01/07 08:29:47;;;;;;;;;;;;;;;8.60;62.86;100428.16;1788915;80;21088;-78
2021/01/07 08:32:18;;;;;;;33.05;16.70;;;;;;;8.58;62.99;100420.81;1786086;80;20516;-77
2021/01/07 08:34:46;;;;;;;32.10;17.52;;;;;;;8.63;63.02;100420.37;1785367;80;21085;-78
2021/01/07 08:37:21;;;;;;;28.20;16.07;;;;;;;8.69;63.03;100406.91;1784710;80;21378;-78
2021/01/07 08:39:48;;;;;;;36.38;19.23;;;;;;;8.77;62.97;100395.02;1761598;80;21140;-79
2021/01/07 08:42:16;;;;;;;27.17;14.30;;;;;;;8.83;62.88;100379.72;1753350;81;21092;-78
2021/01/07 08:44:44;;;;;;;27.00;13.10;;;;;;;8.89;62.73;100381.28;1753946;81;21104;-78
2021/01/07 08:47:21;;;;;;;30.37;16.00;;;;;;;8.91;62.63;100378.98;1703654;80;21132;-78
2021/01/07 08:50:07;;;;;;;35.70;18.52;;;;;;;8.92;62.59;100368.14;1779641;80;21446;-80
2021/01/07 08:52:57;;;;;;;35.20;18.35;;;;;;;8.94;62.56;100358.13;1782290;80;21176;-77
2021/01/07 08:55:49;;;;;;;31.80;16.70;;;;;;;9.03;62.52;100359.89;1785258;80;21180;-79
2021/01/07 08:58:23;;;;;;;29.10;14.60;;;;;;;9.14;62.03;100359.70;1784969;80;21175;-78
2021/01/07 09:00:52;;;;;;;27.17;13.55;;;;;;;9.19;61.26;100343.70;1784855;80;21203;-78
2021/01/07 09:03:20;;;;;;;32.98;15.78;;;;;;;9.20;60.59;100341.38;1785048;80;21372;-78
2021/01/07 09:05:48;;;;;;;25.17;14.65;;;;;;;9.21;59.91;100343.05;1784257;80;21191;-78
2021/01/07 09:08:16;;;;;;;25.90;14.03;;;;;;;9.17;59.59;100333.65;1784711;80;21191;-78
2021/01/07 09:10:43;;;;;;;25.32;13.60;;;;;;;9.14;59.28;100329.47;1784371;80;21504;-79
2021/01/07 09:13:22;;;;;;;22.77;12.05;;;;;;;9.08;58.92;100333.59;1784270;80;21557;-78
2021/01/07 09:15:50;;;;;;;19.42;10.20;;;;;;;8.92;58.70;100342.76;1785240;80;21955;-78
2021/01/07 09:18:20;;;;;;;17.52;10.23;;;;;;;8.72;58.82;100327.36;1773938;78;21219;-79
2021/01/07 09:20:49;;;;;;;16.70;9.73;;;;;;;8.63;58.91;100329.09;1758621;80;21168;-78
2021/01/07 09:23:17;;;;;;;25.15;12.15;;;;;;;8.61;58.87;100323.04;1718177;82;21139;-77
2021/01/07 09:25:45;;;;;;;15.90;9.58;;;;;;;8.55;58.93;100314.30;1716804;82;21185;-79
2021/01/07 09:28:15;;;;;;;13.50;7.67;;;;;;;8.52;58.94;100308.41;1719412;81;21698;-78
2021/01/07 09:30:44;;;;;;;10.00;5.97;;;;;;;8.50;58.94;100307.23;1744890;81;21167;-80
2021/01/07 09:33:13;;;;;;;10.30;6.53;;;;;;;8.46;58.89;100298.34;1718388;81;21198;-79
2021/01/07 09:35:41;;;;;;;11.70;8.00;;;;;;;8.39;58.93;100296.24;1719650;81;21212;-77
2021/01/07 09:38:09;;;;;;;13.28;8.25;;;;;;;8.32;59.04;100293.80;1744558;81;21414;-76
2021/01/07 09:40:37;;;;;;;10.48;7.15;;;;;;;8.27;59.08;100300.08;1721802;82;22033;-77
2021/01/07 09:43:04;;;;;;;12.85;7.40;;;;;;;8.19;59.14;100284.45;1717447;81;21169;-78
2021/01/07 09:45:33;;;;;;;11.30;7.58;;;;;;;8.11;59.25;100282.02;1706970;82;21645;-77
2021/01/07 09:48:01;;;;;;;11.12;7.67;;;;;;;8.06;59.40;100276.28;1744202;81;21641;-76
2021/01/07 09:50:29;;;;;;;12.90;8.60;;;;;;;8.11;59.54;100270.51;1745476;81;21096;-77
2021/01/07 09:52:57;;;;;;;11.57;8.13;;;;;;;8.14;59.65;100265.73;1750136;81;21171;-75
2021/01/07 09:55:28;;;;;;;8.75;5.83;;;;;;;8.19;59.72;100255.11;1718461;82;21147;-78
2021/01/07 09:57:57;;;;;;;8.35;5.45;;;;;;;8.25;59.69;100243.84;1753461;81;21133;-78
2021/01/07 10:00:26;;;;;;;9.60;5.58;;;;;;;8.28;59.56;100235.55;1753730;79;21120;-78
2021/01/07 10:02:54;;;;;;;7.53;5.80;;;;;;;8.31;59.49;100232.09;1750508;81;21098;-78
2021/01/07 10:05:21;;;;;;;9.50;5.78;;;;;;;8.36;59.34;100231.17;1720521;81;21781;-78
2021/01/07 10:07:50;;;;;;;10.05;6.72;;;;;;;8.40;59.28;100231.69;1751783;81;21231;-79
2021/01/07 10:10:19;;;;;;;8.70;6.15;;;;;;;8.44;59.20;100217.06;1748506;81;21131;-79
2021/01/07 10:12:47;;;;;;;7.65;5.70;;;;;;;8.49;59.14;100216.11;1717257;82;21210;-79
2021/01/07 10:15:16;;;;;;;8.85;6.22;;;;;;;8.53;59.04;100209.98;1755531;81;21190;-78
2021/01/07 10:17:43;;;;;;;9.08;5.25;;;;;;;8.57;59.02;100211.36;1756227;81;22532;-79
2021/01/07 10:20:11;;;;;;;9.28;6.22;;;;;;;8.61;59.00;100200.23;1731710;82;21709;-80
2021/01/07 10:22:39;;;;;;;8.78;6.75;;;;;;;8.68;59.00;100190.30;1731990;82;21178;-79
2021/01/07 10:25:08;;;;;;;11.78;7.50;;;;;;;8.72;59.02;100188.97;1732862;81;21493;-79
2021/01/07 10:27:36;;;;;;;10.10;7.53;;;;;;;8.75;59.00;100183.33;1732466;82;21238;-79
2021/01/07 10:30:06;;;;;;;10.85;7.47;;;;;;;8.78;58.94;100174.53;1761781;81;21800;-79
2021/01/07 10:32:34;;;;;;;11.88;7.75;;;;;;;8.82;58.91;100165.22;1737812;82;22083;-79
2021/01/07 10:35:02;;;;;;;10.63;7.35;;;;;;;8.84;58.85;100159.72;1710185;82;21171;-79
2021/01/07 10:37:30;;;;;;;10.82;7.45;;;;;;;8.82;58.78;100156.38;1760840;81;21130;-77
2021/01/07 10:39:58;;;;;;;8.78;6.33;;;;;;;8.84;58.76;100147.70;1776943;80;21136;-77
2021/01/07 10:42:26;;;;;;;9.40;7.08;;;;;;;8.85;58.72;100139.52;1761744;80;21398;-77
2021/01/07 10:44:54;;;;;;;10.50;7.20;;;;;;;8.88;58.62;100145.06;1770421;80;21891;-78
2021/01/07 10:47:21;;;;;;;11.57;7.50;;;;;;;8.88;58.48;100144.56;1760036;80;21682;-77
2021/01/07 10:49:49;;;;;;;8.55;6.30;;;;;;;8.86;58.32;100139.88;1737571;80;21600;-77
2021/01/07 10:52:50;;;;;;;6.62;5.15;;;;;;;8.83;58.32;100133.50;1743647;81;21116;-77
2021/01/07 10:55:30;;;;;;;7.28;5.53;;;;;;;8.80;58.33;100128.97;1748635;82;21690;-77
2021/01/07 10:58:25;;;;;;;6.67;5.47;;;;;;;8.79;58.46;100121.95;1748730;82;21118;-79
2021/01/07 11:01:05;;;;;;;6.50;5.45;;;;;;;8.80;58.57;100114.27;1748216;80;21172;-78
2021/01/07 11:04:07;;;;;;;6.72;5.40;;;;;;;8.83;58.58;100104.63;1719870;79;21244;-78
2021/01/07 11:06:36;;;;;;;6.60;4.80;;;;;;;8.85;58.55;100097.28;1767601;80;21200;-79
2021/01/07 11:09:16;;;;;;;5.60;4.70;;;;;;;8.85;58.51;100085.27;1761883;80;21364;-79
2021/01/07 11:11:47;;;;;;;4.62;4.10;;;;;;;8.84;58.50;100080.92;1737104;82;21208;-78
2021/01/07 11:14:48;;;;;;;5.60;4.45;;;;;;;8.84;58.49;100071.08;1746862;82;21132;-78
2021/01/07 11:17:24;;;;;;;7.08;5.35;;;;;;;8.85;58.46;100063.90;1748312;82;21089;-78
2021/01/07 11:19:52;;;;;;;6.22;5.15;;;;;;;8.82;58.58;100044.20;1749683;80;21132;-77
2021/01/07 11:22:26;;;;;;;6.67;5.20;;;;;;;8.81;58.60;100042.50;1748275;82;21434;-79
2021/01/07 11:24:54;;;;;;;5.42;4.12;;;;;;;8.79;58.66;100037.33;1748165;82;21643;-80
2021/01/07 11:27:22;;;;;;;8.08;5.50;;;;;;;8.78;58.73;100030.83;1748555;82;21104;-80
2021/01/07 11:29:51;;;;;;;5.67;4.62;;;;;;;8.79;58.79;100024.48;1747595;82;21192;-80
2021/01/07 11:32:19;;;;;;;4.45;4.05;;;;;;;8.75;58.95;100023.95;1747999;82;21200;-80
2021/01/07 11:34:47;;;;;;;6.00;4.12;;;;;;;8.67;59.01;100027.06;1748329;82;22236;-78
2021/01/07 11:37:29;;;;;;;5.08;4.58;;;;;;;8.57;59.27;100015.98;1748309;82;21180;-80